sensor_id;sensor_type;location;lat;lon;timestamp;P1;durP1;ratioP1;P2;durP2;ratioP2
20928;SDS011;21895;47.072;15.132;2023-06-22T00:00:01;6.22;;;2.60;;
20928;SDS011;21895;47.072;15.132;2023-06-22T00:02:34;10.68;;;2.80;;
20928;SDS011;21895;47.072;15.132;2023-06-22T00:05:00;13.30;;;2.87;;
20928;SDS011;21895;47.072;15.132;2023-06-22T00:07:27;6.12;;;2.33;;
20928;SDS011;21895;47.072;15.132;2023-06-22T00:09:54;9.70;;;3.37;;
20928;SDS011;21895;47.072;15.132;2023-06-22T00:12:20;4.53;;;2.22;;
20928;SDS011;21895;47.072;15.132;2023-06-22T00:14:47;5.68;;;3.35;;
20928;SDS011;21895;47.072;15.132;2023-06-22T00:17:13;12.55;;;2.90;;
20928;SDS011;21895;47.072;15.132;2023-06-22T00:19:40;7.50;;;2.20;;
20928;SDS011;21895;47.072;15.132;2023-06-22T00:22:06;8.70;;;2.40;;
20928;SDS011;21895;47.072;15.132;2023-06-22T00:24:33;7.57;;;2.87;;
20928;SDS011;21895;47.072;15.132;2023-06-22T00:26:59;8.45;;;2.80;;
20928;SDS011;21895;47.072;15.132;2023-06-22T00:29:26;4.80;;;2.70;;
20928;SDS011;21895;47.072;15.132;2023-06-22T00:31:53;8.10;;;2.47;;
20928;SDS011;21895;47.072;15.132;2023-06-22T00:34:19;5.18;;;2.40;;
20928;SDS011;21895;47.072;15.132;2023-06-22T00:36:46;10.85;;;2.55;;
20928;SDS011;21895;47.072;15.132;2023-06-22T00:39:13;5.07;;;2.17;;
20928;SDS011;21895;47.072;15.132;2023-06-22T00:41:39;8.10;;;3.00;;
20928;SDS011;21895;47.072;15.132;2023-06-22T00:44:06;5.55;;;2.53;;
20928;SDS011;21895;47.072;15.132;2023-06-22T00:46:34;7.97;;;3.05;;
20928;SDS011;21895;47.072;15.132;2023-06-22T00:49:00;5.62;;;2.83;;
20928;SDS011;21895;47.072;15.132;2023-06-22T00:51:27;3.55;;;2.47;;
20928;SDS011;21895;47.072;15.132;2023-06-22T00:53:54;4.07;;;2.35;;
20928;SDS011;21895;47.072;15.132;2023-06-22T00:56:21;12.70;;;2.65;;
20928;SDS011;21895;47.072;15.132;2023-06-22T00:58:50;9.43;;;2.80;;
20928;SDS011;21895;47.072;15.132;2023-06-22T01:01:18;6.10;;;3.15;;
20928;SDS011;21895;47.072;15.132;2023-06-22T01:03:49;8.30;;;2.60;;
20928;SDS011;21895;47.072;15.132;2023-06-22T01:06:18;7.22;;;2.55;;
20928;SDS011;21895;47.072;15.132;2023-06-22T01:09:08;8.93;;;2.15;;
20928;SDS011;21895;47.072;15.132;2023-06-22T01:11:53;8.00;;;2.28;;
20928;SDS011;21895;47.072;15.132;2023-06-22T01:14:47;7.60;;;2.45;;
20928;SDS011;21895;47.072;15.132;2023-06-22T01:17:23;9.07;;;2.60;;
20928;SDS011;21895;47.072;15.132;2023-06-22T01:19:56;9.52;;;2.92;;
20928;SDS011;21895;47.072;15.132;2023-06-22T01:22:27;6.22;;;2.72;;
20928;SDS011;21895;47.072;15.132;2023-06-22T01:25:11;8.65;;;2.60;;
20928;SDS011;21895;47.072;15.132;2023-06-22T01:31:15;6.82;;;3.00;;
20928;SDS011;21895;47.072;15.132;2023-06-22T01:33:47;4.72;;;2.10;;
20928;SDS011;21895;47.072;15.132;2023-06-22T01:36:18;5.85;;;2.60;;
20928;SDS011;21895;47.072;15.132;2023-06-22T01:38:47;4.07;;;2.00;;
20928;SDS011;21895;47.072;15.132;2023-06-22T01:41:16;12.65;;;3.87;;
20928;SDS011;21895;47.072;15.132;2023-06-22T01:43:43;4.47;;;2.22;;
20928;SDS011;21895;47.072;15.132;2023-06-22T01:46:11;5.45;;;2.35;;
20928;SDS011;21895;47.072;15.132;2023-06-22T01:48:40;9.98;;;2.65;;
20928;SDS011;21895;47.072;15.132;2023-06-22T01:51:07;12.32;;;2.45;;
20928;SDS011;21895;47.072;15.132;2023-06-22T01:53:33;16.17;;;2.62;;
20928;SDS011;21895;47.072;15.132;2023-06-22T01:56:00;6.37;;;2.87;;
20928;SDS011;21895;47.072;15.132;2023-06-22T01:58:27;11.27;;;2.45;;
20928;SDS011;21895;47.072;15.132;2023-06-22T02:00:58;5.55;;;2.28;;
20928;SDS011;21895;47.072;15.132;2023-06-22T02:03:44;8.88;;;2.40;;
20928;SDS011;21895;47.072;15.132;2023-06-22T02:07:49;5.43;;;1.80;;
20928;SDS011;21895;47.072;15.132;2023-06-22T02:10:27;3.87;;;2.03;;
20928;SDS011;21895;47.072;15.132;2023-06-22T02:12:57;5.78;;;2.00;;
20928;SDS011;21895;47.072;15.132;2023-06-22T02:15:25;13.85;;;2.15;;
20928;SDS011;21895;47.072;15.132;2023-06-22T02:17:55;4.40;;;2.33;;
20928;SDS011;21895;47.072;15.132;2023-06-22T02:20:22;6.22;;;3.20;;
20928;SDS011;21895;47.072;15.132;2023-06-22T02:22:50;5.90;;;2.22;;
20928;SDS011;21895;47.072;15.132;2023-06-22T02:25:16;3.60;;;1.95;;
20928;SDS011;21895;47.072;15.132;2023-06-22T02:27:44;6.95;;;3.03;;
20928;SDS011;21895;47.072;15.132;2023-06-22T02:30:11;5.07;;;2.83;;
20928;SDS011;21895;47.072;15.132;2023-06-22T02:32:40;6.05;;;2.00;;
20928;SDS011;21895;47.072;15.132;2023-06-22T02:35:10;9.55;;;2.55;;
20928;SDS011;21895;47.072;15.132;2023-06-22T02:37:36;11.50;;;2.17;;
20928;SDS011;21895;47.072;15.132;2023-06-22T02:40:07;5.50;;;2.53;;
20928;SDS011;21895;47.072;15.132;2023-06-22T02:42:34;11.65;;;2.45;;
20928;SDS011;21895;47.072;15.132;2023-06-22T02:45:02;8.75;;;2.22;;
20928;SDS011;21895;47.072;15.132;2023-06-22T02:47:29;5.40;;;2.12;;
20928;SDS011;21895;47.072;15.132;2023-06-22T02:49:56;3.70;;;2.00;;
20928;SDS011;21895;47.072;15.132;2023-06-22T02:52:23;12.63;;;2.53;;
20928;SDS011;21895;47.072;15.132;2023-06-22T02:54:49;4.90;;;2.00;;
20928;SDS011;21895;47.072;15.132;2023-06-22T02:57:16;4.32;;;2.10;;
20928;SDS011;21895;47.072;15.132;2023-06-22T02:59:43;7.05;;;2.37;;
20928;SDS011;21895;47.072;15.132;2023-06-22T03:02:09;5.12;;;2.30;;
20928;SDS011;21895;47.072;15.132;2023-06-22T03:04:36;15.18;;;2.75;;
20928;SDS011;21895;47.072;15.132;2023-06-22T03:07:03;5.30;;;2.45;;
20928;SDS011;21895;47.072;15.132;2023-06-22T03:09:31;11.57;;;3.00;;
20928;SDS011;21895;47.072;15.132;2023-06-22T03:11:58;5.78;;;2.40;;
20928;SDS011;21895;47.072;15.132;2023-06-22T03:14:25;4.93;;;2.05;;
20928;SDS011;21895;47.072;15.132;2023-06-22T03:16:51;11.65;;;2.30;;
20928;SDS011;21895;47.072;15.132;2023-06-22T03:19:18;3.15;;;1.90;;
20928;SDS011;21895;47.072;15.132;2023-06-22T03:21:47;5.60;;;2.78;;
20928;SDS011;21895;47.072;15.132;2023-06-22T03:24:13;6.32;;;1.92;;
20928;SDS011;21895;47.072;15.132;2023-06-22T03:26:40;7.40;;;2.30;;
20928;SDS011;21895;47.072;15.132;2023-06-22T03:29:06;5.80;;;2.00;;
20928;SDS011;21895;47.072;15.132;2023-06-22T03:31:33;4.15;;;2.12;;
20928;SDS011;21895;47.072;15.132;2023-06-22T03:33:59;7.60;;;2.97;;
20928;SDS011;21895;47.072;15.132;2023-06-22T03:36:26;5.28;;;3.00;;
20928;SDS011;21895;47.072;15.132;2023-06-22T03:38:53;5.78;;;2.45;;
20928;SDS011;21895;47.072;15.132;2023-06-22T03:41:19;21.33;;;2.47;;
20928;SDS011;21895;47.072;15.132;2023-06-22T03:43:46;8.88;;;2.22;;
20928;SDS011;21895;47.072;15.132;2023-06-22T03:46:13;3.40;;;1.83;;
20928;SDS011;21895;47.072;15.132;2023-06-22T03:48:39;3.25;;;1.83;;
20928;SDS011;21895;47.072;15.132;2023-06-22T03:51:06;4.35;;;3.03;;
20928;SDS011;21895;47.072;15.132;2023-06-22T03:53:32;8.88;;;2.58;;
20928;SDS011;21895;47.072;15.132;2023-06-22T03:55:59;10.60;;;2.20;;
20928;SDS011;21895;47.072;15.132;2023-06-22T03:58:26;4.65;;;1.92;;
20928;SDS011;21895;47.072;15.132;2023-06-22T04:00:58;3.42;;;2.28;;
20928;SDS011;21895;47.072;15.132;2023-06-22T04:03:25;9.35;;;3.40;;
20928;SDS011;21895;47.072;15.132;2023-06-22T04:05:52;13.25;;;3.15;;
20928;SDS011;21895;47.072;15.132;2023-06-22T04:08:18;4.90;;;2.20;;
20928;SDS011;21895;47.072;15.132;2023-06-22T04:10:45;3.08;;;1.98;;
20928;SDS011;21895;47.072;15.132;2023-06-22T04:13:12;3.20;;;1.80;;
20928;SDS011;21895;47.072;15.132;2023-06-22T04:15:39;3.87;;;1.83;;
20928;SDS011;21895;47.072;15.132;2023-06-22T04:18:05;5.25;;;2.00;;
20928;SDS011;21895;47.072;15.132;2023-06-22T04:20:32;6.10;;;2.67;;
20928;SDS011;21895;47.072;15.132;2023-06-22T04:22:59;6.47;;;2.15;;
20928;SDS011;21895;47.072;15.132;2023-06-22T04:25:26;12.23;;;2.45;;
20928;SDS011;21895;47.072;15.132;2023-06-22T04:27:52;5.50;;;1.90;;
20928;SDS011;21895;47.072;15.132;2023-06-22T04:30:19;12.95;;;2.87;;
20928;SDS011;21895;47.072;15.132;2023-06-22T04:32:45;2.75;;;1.45;;
20928;SDS011;21895;47.072;15.132;2023-06-22T04:35:22;4.22;;;1.85;;
20928;SDS011;21895;47.072;15.132;2023-06-22T04:37:49;10.18;;;2.72;;
20928;SDS011;21895;47.072;15.132;2023-06-22T04:40:23;15.00;;;2.92;;
20928;SDS011;21895;47.072;15.132;2023-06-22T04:42:49;5.15;;;2.53;;
20928;SDS011;21895;47.072;15.132;2023-06-22T04:45:19;5.68;;;2.78;;
20928;SDS011;21895;47.072;15.132;2023-06-22T04:47:46;5.28;;;2.83;;
20928;SDS011;21895;47.072;15.132;2023-06-22T04:50:13;2.40;;;1.62;;
20928;SDS011;21895;47.072;15.132;2023-06-22T04:52:40;5.65;;;2.28;;
20928;SDS011;21895;47.072;15.132;2023-06-22T04:55:07;4.80;;;2.87;;
20928;SDS011;21895;47.072;15.132;2023-06-22T04:57:34;6.70;;;2.22;;
20928;SDS011;21895;47.072;15.132;2023-06-22T05:00:01;4.05;;;1.73;;
20928;SDS011;21895;47.072;15.132;2023-06-22T05:03:29;7.93;;;1.90;;
20928;SDS011;21895;47.072;15.132;2023-06-22T05:05:56;4.82;;;2.35;;
20928;SDS011;21895;47.072;15.132;2023-06-22T05:08:22;5.80;;;2.08;;
20928;SDS011;21895;47.072;15.132;2023-06-22T05:10:52;3.17;;;2.05;;
20928;SDS011;21895;47.072;15.132;2023-06-22T05:13:31;4.37;;;2.10;;
20928;SDS011;21895;47.072;15.132;2023-06-22T05:15:58;11.82;;;2.10;;
20928;SDS011;21895;47.072;15.132;2023-06-22T05:18:30;4.15;;;2.22;;
20928;SDS011;21895;47.072;15.132;2023-06-22T05:20:58;5.97;;;2.87;;
20928;SDS011;21895;47.072;15.132;2023-06-22T05:23:25;2.58;;;1.67;;
20928;SDS011;21895;47.072;15.132;2023-06-22T05:25:51;11.05;;;1.75;;
20928;SDS011;21895;47.072;15.132;2023-06-22T05:28:18;2.92;;;1.80;;
20928;SDS011;21895;47.072;15.132;2023-06-22T05:30:48;5.68;;;2.47;;
20928;SDS011;21895;47.072;15.132;2023-06-22T05:33:15;4.15;;;2.05;;
20928;SDS011;21895;47.072;15.132;2023-06-22T05:35:41;8.38;;;2.05;;
20928;SDS011;21895;47.072;15.132;2023-06-22T05:38:08;11.90;;;2.37;;
20928;SDS011;21895;47.072;15.132;2023-06-22T05:40:34;8.57;;;2.30;;
20928;SDS011;21895;47.072;15.132;2023-06-22T05:43:01;5.62;;;2.58;;
20928;SDS011;21895;47.072;15.132;2023-06-22T05:45:27;10.13;;;3.03;;
20928;SDS011;21895;47.072;15.132;2023-06-22T05:47:54;5.87;;;2.42;;
20928;SDS011;21895;47.072;15.132;2023-06-22T05:50:21;7.93;;;2.10;;
20928;SDS011;21895;47.072;15.132;2023-06-22T05:52:47;6.50;;;2.42;;
20928;SDS011;21895;47.072;15.132;2023-06-22T05:55:14;7.45;;;3.30;;
20928;SDS011;21895;47.072;15.132;2023-06-22T05:57:41;11.15;;;2.33;;
20928;SDS011;21895;47.072;15.132;2023-06-22T06:00:08;9.63;;;2.62;;
20928;SDS011;21895;47.072;15.132;2023-06-22T06:02:36;6.10;;;2.78;;
20928;SDS011;21895;47.072;15.132;2023-06-22T06:05:12;7.20;;;2.30;;
20928;SDS011;21895;47.072;15.132;2023-06-22T06:07:41;8.77;;;2.45;;
20928;SDS011;21895;47.072;15.132;2023-06-22T06:10:09;7.75;;;2.67;;
20928;SDS011;21895;47.072;15.132;2023-06-22T06:12:35;9.45;;;2.67;;
20928;SDS011;21895;47.072;15.132;2023-06-22T06:15:02;5.30;;;2.58;;
20928;SDS011;21895;47.072;15.132;2023-06-22T06:17:30;5.53;;;2.35;;
20928;SDS011;21895;47.072;15.132;2023-06-22T06:19:58;7.68;;;3.50;;
20928;SDS011;21895;47.072;15.132;2023-06-22T06:22:25;4.07;;;2.60;;
20928;SDS011;21895;47.072;15.132;2023-06-22T06:24:52;4.00;;;2.58;;
20928;SDS011;21895;47.072;15.132;2023-06-22T06:27:19;7.05;;;3.08;;
20928;SDS011;21895;47.072;15.132;2023-06-22T06:29:45;6.12;;;2.80;;
20928;SDS011;21895;47.072;15.132;2023-06-22T06:32:14;6.87;;;3.30;;
20928;SDS011;21895;47.072;15.132;2023-06-22T06:34:40;5.50;;;2.87;;
20928;SDS011;21895;47.072;15.132;2023-06-22T06:37:07;7.70;;;2.92;;
20928;SDS011;21895;47.072;15.132;2023-06-22T06:39:33;8.63;;;3.03;;
20928;SDS011;21895;47.072;15.132;2023-06-22T06:42:00;6.60;;;3.08;;
20928;SDS011;21895;47.072;15.132;2023-06-22T06:44:26;5.85;;;2.97;;
20928;SDS011;21895;47.072;15.132;2023-06-22T06:46:53;8.10;;;2.87;;
20928;SDS011;21895;47.072;15.132;2023-06-22T06:49:20;6.68;;;3.03;;
20928;SDS011;21895;47.072;15.132;2023-06-22T06:51:46;11.85;;;4.05;;
20928;SDS011;21895;47.072;15.132;2023-06-22T06:54:13;7.05;;;3.15;;
20928;SDS011;21895;47.072;15.132;2023-06-22T06:56:39;5.15;;;2.60;;
20928;SDS011;21895;47.072;15.132;2023-06-22T06:59:06;8.02;;;2.60;;
20928;SDS011;21895;47.072;15.132;2023-06-22T07:01:32;7.78;;;3.25;;
20928;SDS011;21895;47.072;15.132;2023-06-22T07:04:01;3.97;;;2.37;;
20928;SDS011;21895;47.072;15.132;2023-06-22T07:06:28;6.07;;;2.70;;
20928;SDS011;21895;47.072;15.132;2023-06-22T07:08:57;5.82;;;2.70;;
20928;SDS011;21895;47.072;15.132;2023-06-22T07:11:24;7.53;;;2.78;;
20928;SDS011;21895;47.072;15.132;2023-06-22T07:13:50;12.45;;;3.50;;
20928;SDS011;21895;47.072;15.132;2023-06-22T07:16:17;6.18;;;3.10;;
20928;SDS011;21895;47.072;15.132;2023-06-22T07:18:44;6.90;;;2.87;;
20928;SDS011;21895;47.072;15.132;2023-06-22T07:21:10;4.32;;;2.90;;
20928;SDS011;21895;47.072;15.132;2023-06-22T07:23:37;8.70;;;2.85;;
20928;SDS011;21895;47.072;15.132;2023-06-22T07:26:03;6.37;;;2.65;;
20928;SDS011;21895;47.072;15.132;2023-06-22T07:28:32;6.68;;;3.25;;
20928;SDS011;21895;47.072;15.132;2023-06-22T07:31:02;8.65;;;3.90;;
20928;SDS011;21895;47.072;15.132;2023-06-22T07:33:30;9.30;;;2.95;;
20928;SDS011;21895;47.072;15.132;2023-06-22T07:35:56;9.60;;;3.25;;
20928;SDS011;21895;47.072;15.132;2023-06-22T07:38:23;9.70;;;3.37;;
20928;SDS011;21895;47.072;15.132;2023-06-22T07:40:49;5.72;;;3.33;;
20928;SDS011;21895;47.072;15.132;2023-06-22T07:43:19;12.80;;;3.95;;
20928;SDS011;21895;47.072;15.132;2023-06-22T07:45:50;9.20;;;4.37;;
20928;SDS011;21895;47.072;15.132;2023-06-22T07:48:20;5.43;;;3.12;;
20928;SDS011;21895;47.072;15.132;2023-06-22T07:50:47;5.40;;;3.67;;
20928;SDS011;21895;47.072;15.132;2023-06-22T07:53:15;9.20;;;4.12;;
20928;SDS011;21895;47.072;15.132;2023-06-22T07:55:41;10.50;;;3.85;;
20928;SDS011;21895;47.072;15.132;2023-06-22T07:58:08;9.30;;;4.70;;
20928;SDS011;21895;47.072;15.132;2023-06-22T08:00:34;8.20;;;3.53;;
20928;SDS011;21895;47.072;15.132;2023-06-22T08:03:01;6.45;;;3.60;;
20928;SDS011;21895;47.072;15.132;2023-06-22T08:05:30;7.70;;;4.12;;
20928;SDS011;21895;47.072;15.132;2023-06-22T08:07:57;7.68;;;3.40;;
20928;SDS011;21895;47.072;15.132;2023-06-22T08:10:24;7.03;;;4.15;;
20928;SDS011;21895;47.072;15.132;2023-06-22T08:12:51;8.43;;;4.15;;
20928;SDS011;21895;47.072;15.132;2023-06-22T08:15:18;11.57;;;3.78;;
20928;SDS011;21895;47.072;15.132;2023-06-22T08:17:45;7.10;;;3.90;;
20928;SDS011;21895;47.072;15.132;2023-06-22T08:20:12;11.35;;;5.22;;
20928;SDS011;21895;47.072;15.132;2023-06-22T08:22:41;7.12;;;3.55;;
20928;SDS011;21895;47.072;15.132;2023-06-22T08:25:09;9.27;;;3.95;;
20928;SDS011;21895;47.072;15.132;2023-06-22T08:27:36;13.15;;;3.97;;
20928;SDS011;21895;47.072;15.132;2023-06-22T08:30:03;6.68;;;4.22;;
20928;SDS011;21895;47.072;15.132;2023-06-22T08:32:31;8.50;;;4.40;;
20928;SDS011;21895;47.072;15.132;2023-06-22T08:34:58;11.02;;;4.55;;
20928;SDS011;21895;47.072;15.132;2023-06-22T08:37:25;6.78;;;3.85;;
20928;SDS011;21895;47.072;15.132;2023-06-22T08:39:56;10.05;;;4.25;;
20928;SDS011;21895;47.072;15.132;2023-06-22T08:42:25;7.20;;;4.45;;
20928;SDS011;21895;47.072;15.132;2023-06-22T08:44:51;5.43;;;3.70;;
20928;SDS011;21895;47.072;15.132;2023-06-22T08:47:19;9.73;;;3.60;;
20928;SDS011;21895;47.072;15.132;2023-06-22T08:49:46;14.95;;;4.85;;
20928;SDS011;21895;47.072;15.132;2023-06-22T08:52:12;7.28;;;4.07;;
20928;SDS011;21895;47.072;15.132;2023-06-22T08:54:39;6.55;;;3.85;;
20928;SDS011;21895;47.072;15.132;2023-06-22T08:57:06;7.28;;;4.07;;
20928;SDS011;21895;47.072;15.132;2023-06-22T08:59:32;8.82;;;4.50;;
20928;SDS011;21895;47.072;15.132;2023-06-22T09:01:59;7.60;;;4.15;;
20928;SDS011;21895;47.072;15.132;2023-06-22T09:04:25;10.93;;;4.57;;
20928;SDS011;21895;47.072;15.132;2023-06-22T09:06:52;6.37;;;3.85;;
20928;SDS011;21895;47.072;15.132;2023-06-22T09:09:20;10.27;;;5.05;;
20928;SDS011;21895;47.072;15.132;2023-06-22T09:11:48;6.25;;;4.32;;
20928;SDS011;21895;47.072;15.132;2023-06-22T09:14:14;7.57;;;4.55;;
20928;SDS011;21895;47.072;15.132;2023-06-22T09:16:41;10.20;;;4.90;;
20928;SDS011;21895;47.072;15.132;2023-06-22T09:19:07;8.10;;;4.75;;
20928;SDS011;21895;47.072;15.132;2023-06-22T09:21:34;8.55;;;4.95;;
20928;SDS011;21895;47.072;15.132;2023-06-22T09:24:02;8.32;;;5.22;;
20928;SDS011;21895;47.072;15.132;2023-06-22T09:26:29;8.77;;;4.78;;
20928;SDS011;21895;47.072;15.132;2023-06-22T09:28:55;9.07;;;4.68;;
20928;SDS011;21895;47.072;15.132;2023-06-22T09:31:23;10.30;;;5.45;;
20928;SDS011;21895;47.072;15.132;2023-06-22T09:33:53;7.50;;;4.97;;
20928;SDS011;21895;47.072;15.132;2023-06-22T09:36:20;9.90;;;4.53;;
20928;SDS011;21895;47.072;15.132;2023-06-22T09:38:47;7.20;;;4.70;;
20928;SDS011;21895;47.072;15.132;2023-06-22T09:41:18;8.10;;;4.62;;
20928;SDS011;21895;47.072;15.132;2023-06-22T09:43:44;7.28;;;4.68;;
20928;SDS011;21895;47.072;15.132;2023-06-22T09:46:11;7.68;;;4.57;;
20928;SDS011;21895;47.072;15.132;2023-06-22T09:48:37;7.55;;;4.85;;
20928;SDS011;21895;47.072;15.132;2023-06-22T09:51:06;6.70;;;4.45;;
20928;SDS011;21895;47.072;15.132;2023-06-22T09:53:32;9.55;;;5.15;;
20928;SDS011;21895;47.072;15.132;2023-06-22T09:56:03;9.15;;;4.57;;
20928;SDS011;21895;47.072;15.132;2023-06-22T09:58:30;8.55;;;5.03;;
20928;SDS011;21895;47.072;15.132;2023-06-22T10:00:57;7.60;;;4.57;;
20928;SDS011;21895;47.072;15.132;2023-06-22T10:03:23;10.75;;;5.37;;
20928;SDS011;21895;47.072;15.132;2023-06-22T10:05:50;9.55;;;5.15;;
20928;SDS011;21895;47.072;15.132;2023-06-22T10:08:17;10.88;;;5.32;;
20928;SDS011;21895;47.072;15.132;2023-06-22T10:10:43;10.40;;;4.97;;
20928;SDS011;21895;47.072;15.132;2023-06-22T10:13:10;9.60;;;5.10;;
20928;SDS011;21895;47.072;15.132;2023-06-22T10:15:37;8.98;;;4.35;;
20928;SDS011;21895;47.072;15.132;2023-06-22T10:18:04;10.20;;;4.45;;
20928;SDS011;21895;47.072;15.132;2023-06-22T10:20:31;7.85;;;4.75;;
20928;SDS011;21895;47.072;15.132;2023-06-22T10:22:58;8.93;;;4.70;;
20928;SDS011;21895;47.072;15.132;2023-06-22T10:25:26;8.13;;;4.90;;
20928;SDS011;21895;47.072;15.132;2023-06-22T10:27:53;9.75;;;4.80;;
20928;SDS011;21895;47.072;15.132;2023-06-22T10:30:20;8.32;;;4.60;;
20928;SDS011;21895;47.072;15.132;2023-06-22T10:32:46;7.62;;;4.78;;
20928;SDS011;21895;47.072;15.132;2023-06-22T10:35:13;12.57;;;5.12;;
20928;SDS011;21895;47.072;15.132;2023-06-22T10:37:44;8.43;;;4.78;;
20928;SDS011;21895;47.072;15.132;2023-06-22T10:40:12;6.85;;;4.30;;
20928;SDS011;21895;47.072;15.132;2023-06-22T10:42:41;9.65;;;4.62;;
20928;SDS011;21895;47.072;15.132;2023-06-22T10:45:08;8.43;;;4.60;;
20928;SDS011;21895;47.072;15.132;2023-06-22T10:47:35;9.65;;;4.62;;
20928;SDS011;21895;47.072;15.132;2023-06-22T10:50:02;10.05;;;5.10;;
20928;SDS011;21895;47.072;15.132;2023-06-22T10:52:30;10.95;;;4.90;;
20928;SDS011;21895;47.072;15.132;2023-06-22T10:54:57;6.87;;;4.60;;
20928;SDS011;21895;47.072;15.132;2023-06-22T10:57:24;13.77;;;4.97;;
20928;SDS011;21895;47.072;15.132;2023-06-22T10:59:50;10.38;;;4.90;;
20928;SDS011;21895;47.072;15.132;2023-06-22T11:02:17;10.30;;;4.45;;
20928;SDS011;21895;47.072;15.132;2023-06-22T11:04:44;10.48;;;5.20;;
20928;SDS011;21895;47.072;15.132;2023-06-22T11:07:11;7.97;;;4.43;;
20928;SDS011;21895;47.072;15.132;2023-06-22T11:09:38;7.75;;;4.68;;
20928;SDS011;21895;47.072;15.132;2023-06-22T11:12:05;10.00;;;5.05;;
20928;SDS011;21895;47.072;15.132;2023-06-22T11:14:33;12.43;;;5.65;;
20928;SDS011;21895;47.072;15.132;2023-06-22T11:17:00;10.25;;;5.35;;
20928;SDS011;21895;47.072;15.132;2023-06-22T11:19:26;8.85;;;4.87;;
20928;SDS011;21895;47.072;15.132;2023-06-22T11:21:53;9.20;;;4.65;;
20928;SDS011;21895;47.072;15.132;2023-06-22T11:24:19;10.50;;;4.90;;
20928;SDS011;21895;47.072;15.132;2023-06-22T11:26:46;7.40;;;4.70;;
20928;SDS011;21895;47.072;15.132;2023-06-22T11:29:13;6.80;;;4.62;;
20928;SDS011;21895;47.072;15.132;2023-06-22T11:31:57;9.55;;;5.10;;
20928;SDS011;21895;47.072;15.132;2023-06-22T11:34:24;9.40;;;4.95;;
20928;SDS011;21895;47.072;15.132;2023-06-22T11:36:50;6.90;;;4.53;;
20928;SDS011;21895;47.072;15.132;2023-06-22T11:39:17;8.25;;;5.00;;
20928;SDS011;21895;47.072;15.132;2023-06-22T11:41:54;10.63;;;5.43;;
20928;SDS011;21895;47.072;15.132;2023-06-22T11:44:21;7.82;;;5.37;;
20928;SDS011;21895;47.072;15.132;2023-06-22T11:46:47;11.88;;;5.03;;
20928;SDS011;21895;47.072;15.132;2023-06-22T11:49:14;9.02;;;5.22;;
20928;SDS011;21895;47.072;15.132;2023-06-22T11:51:40;12.52;;;5.78;;
20928;SDS011;21895;47.072;15.132;2023-06-22T11:54:07;12.20;;;6.07;;
20928;SDS011;21895;47.072;15.132;2023-06-22T11:56:34;9.93;;;5.70;;
20928;SDS011;21895;47.072;15.132;2023-06-22T11:59:00;10.50;;;5.22;;
20928;SDS011;21895;47.072;15.132;2023-06-22T12:01:27;7.60;;;4.93;;
20928;SDS011;21895;47.072;15.132;2023-06-22T12:03:53;10.38;;;5.40;;
20928;SDS011;21895;47.072;15.132;2023-06-22T12:06:20;9.77;;;5.00;;
20928;SDS011;21895;47.072;15.132;2023-06-22T12:08:47;9.43;;;5.15;;
20928;SDS011;21895;47.072;15.132;2023-06-22T12:11:13;9.40;;;5.10;;
20928;SDS011;21895;47.072;15.132;2023-06-22T12:13:40;11.18;;;5.45;;
20928;SDS011;21895;47.072;15.132;2023-06-22T12:16:06;10.23;;;5.07;;
20928;SDS011;21895;47.072;15.132;2023-06-22T12:18:33;11.55;;;5.70;;
20928;SDS011;21895;47.072;15.132;2023-06-22T12:21:00;10.10;;;5.32;;
20928;SDS011;21895;47.072;15.132;2023-06-22T12:23:26;9.82;;;5.00;;
20928;SDS011;21895;47.072;15.132;2023-06-22T12:25:53;10.43;;;5.40;;
20928;SDS011;21895;47.072;15.132;2023-06-22T12:28:20;12.80;;;4.97;;
20928;SDS011;21895;47.072;15.132;2023-06-22T12:30:46;7.62;;;4.68;;
20928;SDS011;21895;47.072;15.132;2023-06-22T12:33:13;11.02;;;5.43;;
20928;SDS011;21895;47.072;15.132;2023-06-22T12:35:40;11.30;;;5.55;;
20928;SDS011;21895;47.072;15.132;2023-06-22T12:38:06;13.13;;;5.70;;
20928;SDS011;21895;47.072;15.132;2023-06-22T12:40:33;10.02;;;5.15;;
20928;SDS011;21895;47.072;15.132;2023-06-22T12:43:00;9.45;;;5.25;;
20928;SDS011;21895;47.072;15.132;2023-06-22T12:45:27;12.10;;;5.37;;
20928;SDS011;21895;47.072;15.132;2023-06-22T12:47:57;12.57;;;5.43;;
20928;SDS011;21895;47.072;15.132;2023-06-22T12:50:23;13.00;;;5.32;;
20928;SDS011;21895;47.072;15.132;2023-06-22T12:52:50;9.85;;;5.20;;
20928;SDS011;21895;47.072;15.132;2023-06-22T12:55:17;13.75;;;6.28;;
20928;SDS011;21895;47.072;15.132;2023-06-22T12:57:44;8.60;;;4.82;;
20928;SDS011;21895;47.072;15.132;2023-06-22T13:00:10;16.52;;;5.35;;
20928;SDS011;21895;47.072;15.132;2023-06-22T13:02:38;11.43;;;5.60;;
20928;SDS011;21895;47.072;15.132;2023-06-22T13:05:05;12.35;;;5.87;;
20928;SDS011;21895;47.072;15.132;2023-06-22T13:07:31;9.77;;;5.05;;
20928;SDS011;21895;47.072;15.132;2023-06-22T13:09:58;13.43;;;5.47;;
20928;SDS011;21895;47.072;15.132;2023-06-22T13:12:25;8.13;;;4.80;;
20928;SDS011;21895;47.072;15.132;2023-06-22T13:14:51;10.45;;;5.15;;
20928;SDS011;21895;47.072;15.132;2023-06-22T13:17:18;10.27;;;5.03;;
20928;SDS011;21895;47.072;15.132;2023-06-22T13:19:44;8.10;;;5.37;;
20928;SDS011;21895;47.072;15.132;2023-06-22T13:22:33;9.38;;;5.93;;
20928;SDS011;21895;47.072;15.132;2023-06-22T13:25:08;10.05;;;5.55;;
20928;SDS011;21895;47.072;15.132;2023-06-22T13:27:40;9.98;;;5.80;;
20928;SDS011;21895;47.072;15.132;2023-06-22T13:30:07;8.52;;;5.35;;
20928;SDS011;21895;47.072;15.132;2023-06-22T13:32:39;10.73;;;5.72;;
20928;SDS011;21895;47.072;15.132;2023-06-22T13:35:08;8.73;;;4.87;;
20928;SDS011;21895;47.072;15.132;2023-06-22T13:37:35;9.10;;;5.53;;
20928;SDS011;21895;47.072;15.132;2023-06-22T13:40:02;9.90;;;5.85;;
20928;SDS011;21895;47.072;15.132;2023-06-22T13:42:32;9.20;;;5.15;;
20928;SDS011;21895;47.072;15.132;2023-06-22T13:44:59;9.38;;;5.32;;
20928;SDS011;21895;47.072;15.132;2023-06-22T13:47:25;10.00;;;5.62;;
20928;SDS011;21895;47.072;15.132;2023-06-22T13:49:55;12.32;;;5.72;;
20928;SDS011;21895;47.072;15.132;2023-06-22T13:52:23;8.85;;;5.60;;
20928;SDS011;21895;47.072;15.132;2023-06-22T13:54:50;9.75;;;5.78;;
20928;SDS011;21895;47.072;15.132;2023-06-22T13:57:16;12.40;;;5.47;;
20928;SDS011;21895;47.072;15.132;2023-06-22T13:59:43;8.98;;;5.47;;
20928;SDS011;21895;47.072;15.132;2023-06-22T14:02:09;10.63;;;5.65;;
20928;SDS011;21895;47.072;15.132;2023-06-22T14:04:36;8.93;;;5.85;;
20928;SDS011;21895;47.072;15.132;2023-06-22T14:07:03;11.57;;;6.07;;
20928;SDS011;21895;47.072;15.132;2023-06-22T14:09:29;9.25;;;5.60;;
20928;SDS011;21895;47.072;15.132;2023-06-22T14:11:56;11.02;;;5.43;;
20928;SDS011;21895;47.072;15.132;2023-06-22T14:14:23;12.32;;;5.45;;
20928;SDS011;21895;47.072;15.132;2023-06-22T14:16:49;12.18;;;6.65;;
20928;SDS011;21895;47.072;15.132;2023-06-22T14:19:19;14.18;;;5.55;;
20928;SDS011;21895;47.072;15.132;2023-06-22T14:21:45;12.57;;;5.32;;
20928;SDS011;21895;47.072;15.132;2023-06-22T14:24:12;11.60;;;5.68;;
20928;SDS011;21895;47.072;15.132;2023-06-22T14:26:38;9.07;;;5.68;;
20928;SDS011;21895;47.072;15.132;2023-06-22T14:29:05;13.23;;;5.65;;
20928;SDS011;21895;47.072;15.132;2023-06-22T14:31:32;10.75;;;5.62;;
20928;SDS011;21895;47.072;15.132;2023-06-22T14:33:58;8.75;;;5.20;;
20928;SDS011;21895;47.072;15.132;2023-06-22T14:36:26;12.57;;;5.85;;
20928;SDS011;21895;47.072;15.132;2023-06-22T14:38:52;9.93;;;5.60;;